Time;durP1;ratioP1;P1;durP2;ratioP2;P2;SDS_P1;SDS_P2;PMS_P1;PMS_P2;Temp;Humidity;BMP_temperature;BMP_pressure;BME280_temperature;BME280_humidity;BME280_pressure;Samples;Min_cycle;Max_cycle;Signal;HPM_P1;HPM_P2
2022/03/12 00:02:05;;;;;;;;;;;;;;;;;;4931780;29;19933;-78
2022/03/12 00:04:30;;;;;;;;;;;;;;;;;;4933387;29;20017;-77
2022/03/12 00:06:58;;;;;;;;;;;;;;;;;;4933221;29;20455;-79
2022/03/12 00:09:24;;;;;;;;;;;;;;;;;;4932840;29;19922;-79
2022/03/12 00:11:55;;;;;;;;;;;;;;;;;;4932971;29;20291;-78
2022/03/12 00:14:22;;;;;;;;;;;;;;;;;;4930924;29;19915;-78
2022/03/12 00:16:51;;;;;;;;;;;;;;;;;;4915417;29;20240;-79
2022/03/12 00:19:17;;;;;;;;;;;;;;;;;;4930527;29;19918;-78
2022/03/12 00:21:42;;;;;;;;;;;;;;;;;;4931667;29;20005;-79
2022/03/12 00:24:09;;;;;;;;;;;;;;;;;;4931114;29;20401;-78
2022/03/12 00:26:38;;;;;;;;;;;;;;;;;;4930735;29;19918;-77
2022/03/12 00:29:04;;;;;;;;;;;;;;;;;;4932347;29;20351;-78
2022/03/12 00:31:30;;;;;;;;;;;;;;;;;;4931170;29;19918;-78
2022/03/12 00:33:55;;;;;;;;;;;;;;;;;;4931198;29;20291;-78
2022/03/12 00:36:20;;;;;;;;;;;;;;;;;;4931789;29;19922;-79
2022/03/12 00:38:46;;;;;;;;;;;;;;;;;;4930305;29;19946;-79
2022/03/12 00:41:11;;;;;;;;;;;;;;;;;;4930395;29;19915;-78
2022/03/12 00:43:37;;;;;;;;;;;;;;;;;;4932168;29;19918;-77
2022/03/12 00:46:05;;;;;;;;;;;;;;;;;;4920926;29;19991;-76
2022/03/12 00:48:31;;;;;;;;;;;;;;;;;;4912201;29;20272;-76
2022/03/12 00:50:56;;;;;;;;;;;;;;;;;;4913887;29;19919;-76
2022/03/12 00:53:22;;;;;;;;;;;;;;;;;;4915579;29;19921;-76
2022/03/12 00:55:47;;;;;;;;;;;;;;;;;;4915178;29;19925;-76
2022/03/12 00:58:12;;;;;;;;;;;;;;;;;;4915265;29;19915;-76
2022/03/12 01:00:38;;;;;;;;;;;;;;;;;;4916254;29;19915;-76
2022/03/12 01:03:03;;;;;;;;;;;;;;;;;;4916505;29;19947;-76
2022/03/12 01:05:45;;;;;;;;;;;;;;;;;;4914913;29;19919;-76
2022/03/12 01:08:11;;;;;;;;;;;;;;;;;;4915502;29;19915;-76
2022/03/12 01:10:36;;;;;;;;;;;;;;;;;;4915658;29;19926;-76
2022/03/12 01:13:02;;;;;;;;;;;;;;;;;;4917419;29;19922;-77
2022/03/12 01:15:27;;;;;;;;;;;;;;;;;;4915436;29;19931;-77
2022/03/12 01:17:53;;;;;;;;;;;;;;;;;;4915155;29;20005;-76
2022/03/12 01:20:24;;;;;;;;;;;;;;;;;;4916584;29;19915;-76
2022/03/12 01:22:50;;;;;;;;;;;;;;;;;;4915383;29;19946;-75
2022/03/12 01:25:16;;;;;;;;;;;;;;;;;;4916370;29;19915;-77
2022/03/12 01:27:41;;;;;;;;;;;;;;;;;;4915546;29;20342;-77
2022/03/12 01:30:07;;;;;;;;;;;;;;;;;;4914916;29;19933;-77
2022/03/12 01:32:33;;;;;;;;;;;;;;;;;;4914917;29;20017;-77
2022/03/12 01:34:58;;;;;;;;;;;;;;;;;;4914970;29;19915;-77
2022/03/12 01:37:24;;;;;;;;;;;;;;;;;;4914966;29;20015;-76
2022/03/12 01:39:49;;;;;;;;;;;;;;;;;;4916392;29;19915;-76
2022/03/12 01:42:16;;;;;;;;;;;;;;;;;;4914614;29;20403;-76
2022/03/12 01:44:42;;;;;;;;;;;;;;;;;;4915950;29;19970;-77
2022/03/12 01:47:09;;;;;;;;;;;;;;;;;;4933297;29;19938;-76
2022/03/12 01:49:34;;;;;;;;;;;;;;;;;;4934371;29;19918;-76
2022/03/12 01:52:00;;;;;;;;;;;;;;;;;;4933603;29;19966;-76
2022/03/12 01:54:26;;;;;;;;;;;;;;;;;;4934628;29;19915;-76
2022/03/12 01:56:53;;;;;;;;;;;;;;;;;;4933962;29;20264;-75
2022/03/12 01:59:19;;;;;;;;;;;;;;;;;;4937061;29;19938;-75
2022/03/12 02:01:51;;;;;;;;;;;;;;;;;;4942406;29;20290;-76
2022/03/12 02:04:17;;;;;;;;;;;;;;;;;;4941531;29;19915;-75
2022/03/12 02:06:43;;;;;;;;;;;;;;;;;;4938106;29;19918;-76
2022/03/12 02:09:09;;;;;;;;;;;;;;;;;;4933371;29;20294;-76
2022/03/12 02:11:36;;;;;;;;;;;;;;;;;;4933096;29;19919;-76
2022/03/12 02:14:08;;;;;;;;;;;;;;;;;;4933408;29;19915;-76
2022/03/12 02:16:34;;;;;;;;;;;;;;;;;;4932904;29;19946;-76
2022/03/12 02:18:59;;;;;;;;;;;;;;;;;;4932950;29;20406;-76
2022/03/12 02:21:29;;;;;;;;;;;;;;;;;;4932623;29;20008;-77
2022/03/12 02:23:55;;;;;;;;;;;;;;;;;;4934198;29;19954;-76
2022/03/12 02:26:20;;;;;;;;;;;;;;;;;;4932794;29;19957;-75
2022/03/12 02:28:46;;;;;;;;;;;;;;;;;;4933107;29;19926;-76
2022/03/12 02:31:13;;;;;;;;;;;;;;;;;;4932519;29;19923;-76
2022/03/12 02:33:38;;;;;;;;;;;;;;;;;;4932968;29;19919;-77
2022/03/12 02:36:05;;;;;;;;;;;;;;;;;;4934490;29;19921;-77
2022/03/12 02:38:31;;;;;;;;;;;;;;;;;;4932247;29;19980;-76
2022/03/12 02:40:56;;;;;;;;;;;;;;;;;;4932300;29;20360;-76
2022/03/12 02:43:26;;;;;;;;;;;;;;;;;;4933971;29;19959;-77
2022/03/12 02:45:55;;;;;;;;;;;;;;;;;;4924808;29;20360;-77
2022/03/12 02:48:23;;;;;;;;;;;;;;;;;;4913616;29;20054;-77
2022/03/12 02:50:49;;;;;;;;;;;;;;;;;;4915253;29;19923;-77
2022/03/12 02:53:16;;;;;;;;;;;;;;;;;;4897750;29;19926;-75
2022/03/12 02:55:42;;;;;;;;;;;;;;;;;;4914298;29;19983;-76
2022/03/12 02:58:09;;;;;;;;;;;;;;;;;;4915020;29;19915;-76
2022/03/12 03:00:36;;;;;;;;;;;;;;;;;;4915083;29;19915;-76
2022/03/12 03:03:02;;;;;;;;;;;;;;;;;;4915049;29;19970;-76
2022/03/12 03:05:41;;;;;;;;;;;;;;;;;;4912931;29;20398;-76
2022/03/12 03:08:09;;;;;;;;;;;;;;;;;;4913144;29;19968;-76
2022/03/12 03:10:36;;;;;;;;;;;;;;;;;;4912786;29;19915;-76
2022/03/12 03:13:16;;;;;;;;;;;;;;;;;;4914334;29;19923;-76
2022/03/12 03:15:49;;;;;;;;;;;;;;;;;;4912530;29;19919;-76
2022/03/12 03:18:16;;;;;;;;;;;;;;;;;;4913310;29;19922;-76
2022/03/12 03:20:42;;;;;;;;;;;;;;;;;;4913010;29;20473;-77
2022/03/12 03:23:11;;;;;;;;;;;;;;;;;;4914473;29;19919;-76
2022/03/12 03:25:36;;;;;;;;;;;;;;;;;;4913809;29;19915;-76
2022/03/12 03:28:02;;;;;;;;;;;;;;;;;;4913225;29;20343;-76
2022/03/12 03:30:33;;;;;;;;;;;;;;;;;;4914133;29;19934;-76
2022/03/12 03:32:58;;;;;;;;;;;;;;;;;;4913329;29;19919;-75
2022/03/12 03:35:23;;;;;;;;;;;;;;;;;;4914447;29;20260;-75
2022/03/12 03:37:49;;;;;;;;;;;;;;;;;;4914469;29;19915;-77
2022/03/12 03:40:14;;;;;;;;;;;;;;;;;;4912816;29;19915;-76
2022/03/12 03:42:41;;;;;;;;;;;;;;;;;;4914330;29;20384;-77
2022/03/12 03:45:07;;;;;;;;;;;;;;;;;;4916137;29;19914;-77
2022/03/12 03:47:32;;;;;;;;;;;;;;;;;;4915339;29;20335;-76
2022/03/12 03:49:57;;;;;;;;;;;;;;;;;;4931291;29;19970;-76
2022/03/12 03:52:23;;;;;;;;;;;;;;;;;;4932915;29;19915;-76
2022/03/12 03:54:49;;;;;;;;;;;;;;;;;;4931433;29;20467;-76
2022/03/12 03:57:17;;;;;;;;;;;;;;;;;;4931106;29;20272;-77
2022/03/12 03:59:42;;;;;;;;;;;;;;;;;;4931024;29;19919;-76
2022/03/12 04:02:08;;;;;;;;;;;;;;;;;;4930756;29;19997;-76
2022/03/12 04:04:35;;;;;;;;;;;;;;;;;;4932296;29;19915;-77
2022/03/12 04:07:01;;;;;;;;;;;;;;;;;;4932497;29;20050;-76
2022/03/12 04:09:27;;;;;;;;;;;;;;;;;;4930829;29;20041;-76
2022/03/12 04:11:52;;;;;;;;;;;;;;;;;;4930901;29;20473;-76
2022/03/12 04:14:17;;;;;;;;;;;;;;;;;;4931100;29;19979;-77
2022/03/12 04:16:43;;;;;;;;;;;;;;;;;;4932250;29;19942;-76
2022/03/12 04:19:09;;;;;;;;;;;;;;;;;;4932479;29;19922;-76
2022/03/12 04:21:35;;;;;;;;;;;;;;;;;;4930844;29;19915;-77
2022/03/12 04:24:00;;;;;;;;;;;;;;;;;;4931407;29;20398;-75
2022/03/12 04:26:25;;;;;;;;;;;;;;;;;;4931795;29;19978;-76
2022/03/12 04:28:51;;;;;;;;;;;;;;;;;;4934959;29;19970;-76
2022/03/12 04:31:18;;;;;;;;;;;;;;;;;;4936224;29;19921;-76
2022/03/12 04:33:43;;;;;;;;;;;;;;;;;;4935154;29;19922;-76
2022/03/12 04:36:10;;;;;;;;;;;;;;;;;;4936427;29;19922;-76
2022/03/12 04:38:35;;;;;;;;;;;;;;;;;;4936064;29;19915;-76
2022/03/12 04:41:01;;;;;;;;;;;;;;;;;;4936423;29;20275;-76
2022/03/12 04:43:28;;;;;;;;;;;;;;;;;;4936399;29;20409;-76
2022/03/12 04:45:54;;;;;;;;;;;;;;;;;;4925800;29;20010;-77
2022/03/12 04:48:23;;;;;;;;;;;;;;;;;;4915762;29;19919;-76
2022/03/12 04:50:49;;;;;;;;;;;;;;;;;;4917279;29;20344;-76
2022/03/12 04:53:15;;;;;;;;;;;;;;;;;;4917039;29;20005;-76
2022/03/12 04:55:43;;;;;;;;;;;;;;;;;;4915253;29;20327;-77
2022/03/12 04:58:09;;;;;;;;;;;;;;;;;;4915248;29;19919;-76
2022/03/12 05:00:38;;;;;;;;;;;;;;;;;;4915944;29;20385;-76
2022/03/12 05:03:10;;;;;;;;;;;;;;;;;;4916929;29;20368;-76
2022/03/12 05:05:39;;;;;;;;;;;;;;;;;;4917048;29;19915;-76
2022/03/12 05:08:05;;;;;;;;;;;;;;;;;;4915910;29;20328;-77
2022/03/12 05:10:31;;;;;;;;;;;;;;;;;;4915499;29;19937;-77
2022/03/12 05:13:02;;;;;;;;;;;;;;;;;;4916927;29;20415;-76
2022/03/12 05:15:32;;;;;;;;;;;;;;;;;;4915475;29;19984;-75
2022/03/12 05:17:58;;;;;;;;;;;;;;;;;;4915292;29;19926;-76
2022/03/12 05:20:25;;;;;;;;;;;;;;;;;;4915356;29;20294;-76
2022/03/12 05:22:51;;;;;;;;;;;;;;;;;;4914932;29;19958;-76
2022/03/12 05:25:18;;;;;;;;;;;;;;;;;;4916675;29;19958;-77
2022/03/12 05:27:45;;;;;;;;;;;;;;;;;;4914708;29;19919;-77
2022/03/12 05:30:10;;;;;;;;;;;;;;;;;;4914827;29;19923;-77
2022/03/12 05:32:36;;;;;;;;;;;;;;;;;;4916201;29;20017;-76
2022/03/12 05:35:01;;;;;;;;;;;;;;;;;;4915003;29;20324;-76
2022/03/12 05:37:28;;;;;;;;;;;;;;;;;;4916402;29;19923;-77
2022/03/12 05:39:54;;;;;;;;;;;;;;;;;;4915434;29;19919;-76
2022/03/12 05:42:22;;;;;;;;;;;;;;;;;;4914693;29;19942;-76
2022/03/12 05:44:48;;;;;;;;;;;;;;;;;;4914734;29;19919;-76
2022/03/12 05:47:13;;;;;;;;;;;;;;;;;;4934973;29;19921;-76
2022/03/12 05:49:39;;;;;;;;;;;;;;;;;;4933730;29;19930;-76
2022/03/12 05:52:04;;;;;;;;;;;;;;;;;;4935118;29;19918;-77
2022/03/12 05:54:30;;;;;;;;;;;;;;;;;;4934949;29;19915;-77
2022/03/12 05:56:56;;;;;;;;;;;;;;;;;;4933410;29;19945;-76
2022/03/12 05:59:22;;;;;;;;;;;;;;;;;;4933491;29;19915;-76
2022/03/12 06:01:50;;;;;;;;;;;;;;;;;;4933154;29;20431;-76
2022/03/12 06:04:19;;;;;;;;;;;;;;;;;;4933505;29;20335;-77
2022/03/12 06:06:47;;;;;;;;;;;;;;;;;;4934862;28;20399;-77
2022/03/12 06:09:13;;;;;;;;;;;;;;;;;;4933449;29;19919;-76
2022/03/12 06:11:38;;;;;;;;;;;;;;;;;;4933235;29;19958;-76
2022/03/12 06:14:04;;;;;;;;;;;;;;;;;;4934389;29;19970;-76
2022/03/12 06:16:31;;;;;;;;;;;;;;;;;;4933013;29;19922;-77
2022/03/12 06:18:56;;;;;;;;;;;;;;;;;;4932723;29;19915;-78
2022/03/12 06:21:21;;;;;;;;;;;;;;;;;;4932968;29;20406;-76
2022/03/12 06:23:47;;;;;;;;;;;;;;;;;;4933788;29;20291;-76
2022/03/12 06:26:14;;;;;;;;;;;;;;;;;;4933072;29;19915;-77
2022/03/12 06:28:43;;;;;;;;;;;;;;;;;;4933978;29;19925;-77
2022/03/12 06:31:09;;;;;;;;;;;;;;;;;;4932553;29;19927;-77
2022/03/12 06:33:35;;;;;;;;;;;;;;;;;;4934534;28;19915;-76
2022/03/12 06:36:03;;;;;;;;;;;;;;;;;;4934623;29;20037;-77
2022/03/12 06:38:34;;;;;;;;;;;;;;;;;;4932909;29;19918;-77
2022/03/12 06:41:00;;;;;;;;;;;;;;;;;;4917040;29;20022;-76
2022/03/12 06:43:28;;;;;;;;;;;;;;;;;;4932516;29;19931;-76
2022/03/12 06:45:54;;;;;;;;;;;;;;;;;;4923613;29;19919;-77
2022/03/12 06:48:22;;;;;;;;;;;;;;;;;;4914751;29;19916;-77
2022/03/12 06:50:47;;;;;;;;;;;;;;;;;;4913145;29;20010;-75
2022/03/12 06:53:13;;;;;;;;;;;;;;;;;;4914529;29;20329;-76
2022/03/12 06:55:38;;;;;;;;;;;;;;;;;;4913549;29;20375;-77
2022/03/12 06:58:04;;;;;;;;;;;;;;;;;;4914877;29;19946;-76
2022/03/12 07:00:31;;;;;;;;;;;;;;;;;;4917728;29;19915;-77
2022/03/12 07:02:57;;;;;;;;;;;;;;;;;;4916889;29;19976;-76
2022/03/12 07:05:22;;;;;;;;;;;;;;;;;;4914650;29;20345;-77
2022/03/12 07:07:48;;;;;;;;;;;;;;;;;;4923703;29;19915;-76
2022/03/12 07:10:14;;;;;;;;;;;;;;;;;;4919434;29;20368;-77
2022/03/12 07:12:42;;;;;;;;;;;;;;;;;;4915369;29;19915;-77
2022/03/12 07:15:07;;;;;;;;;;;;;;;;;;4914603;29;19919;-77
2022/03/12 07:17:33;;;;;;;;;;;;;;;;;;4913690;29;20073;-76
2022/03/12 07:19:59;;;;;;;;;;;;;;;;;;4912500;29;19919;-77
2022/03/12 07:22:24;;;;;;;;;;;;;;;;;;4912858;29;20479;-77
2022/03/12 07:24:49;;;;;;;;;;;;;;;;;;4914543;29;20006;-78
2022/03/12 07:27:15;;;;;;;;;;;;;;;;;;4912912;29;19915;-76
2022/03/12 07:29:40;;;;;;;;;;;;;;;;;;4912545;29;20062;-76
2022/03/12 07:32:06;;;;;;;;;;;;;;;;;;4913197;29;19923;-77
2022/03/12 07:34:32;;;;;;;;;;;;;;;;;;4913462;29;19915;-77
2022/03/12 07:36:57;;;;;;;;;;;;;;;;;;4914293;29;19980;-77
2022/03/12 07:39:22;;;;;;;;;;;;;;;;;;4915026;29;19914;-76
2022/03/12 07:41:48;;;;;;;;;;;;;;;;;;4915195;29;20340;-78
2022/03/12 07:44:13;;;;;;;;;;;;;;;;;;4897424;29;20273;-77
2022/03/12 07:46:39;;;;;;;;;;;;;;;;;;4914937;29;19994;-78
2022/03/12 07:49:04;;;;;;;;;;;;;;;;;;4913068;29;19919;-78
2022/03/12 07:51:31;;;;;;;;;;;;;;;;;;4912959;29;19974;-77
2022/03/12 07:53:59;;;;;;;;;;;;;;;;;;4912698;29;20025;-77
2022/03/12 07:56:25;;;;;;;;;;;;;;;;;;4914194;29;19924;-77
2022/03/12 07:58:50;;;;;;;;;;;;;;;;;;4912469;29;19971;-77
2022/03/12 08:01:16;;;;;;;;;;;;;;;;;;4911718;29;19915;-78
2022/03/12 08:03:41;;;;;;;;;;;;;;;;;;4913417;29;20303;-76
2022/03/12 08:06:08;;;;;;;;;;;;;;;;;;4914425;29;19915;-77
2022/03/12 08:08:34;;;;;;;;;;;;;;;;;;4913506;29;20331;-76
2022/03/12 08:13:44;;;;;;;;;;;;;;;;;;4913565;29;19922;-77
2022/03/12 08:16:12;;;;;;;;;;;;;;;;;;4912525;29;20009;-77
2022/03/12 08:18:37;;;;;;;;;;;;;;;;;;4913728;29;19915;-78
2022/03/12 08:21:02;;;;;;;;;;;;;;;;;;4912336;29;19922;-77
2022/03/12 08:23:28;;;;;;;;;;;;;;;;;;4911873;29;19974;-77
2022/03/12 08:25:53;;;;;;;;;;;;;;;;;;4912270;29;19919;-78
2022/03/12 08:28:18;;;;;;;;;;;;;;;;;;4913951;29;20332;-77
2022/03/12 08:30:46;;;;;;;;;;;;;;;;;;4912441;29;20160;-77
2022/03/12 08:33:12;;;;;;;;;;;;;;;;;;4913938;29;19962;-77
2022/03/12 08:35:37;;;;;;;;;;;;;;;;;;4913706;29;19954;-77
2022/03/12 08:38:03;;;;;;;;;;;;;;;;;;4913534;29;19926;-77
2022/03/12 08:40:29;;;;;;;;;;;;;;;;;;4912110;29;20402;-77
2022/03/12 08:42:55;;;;;;;;;;;;;;;;;;4912024;29;20055;-77
2022/03/12 08:45:20;;;;;;;;;;;;;;;;;;4896726;29;19927;-76
2022/03/12 08:47:47;;;;;;;;;;;;;;;;;;4913602;29;19915;-77
2022/03/12 08:50:13;;;;;;;;;;;;;;;;;;4913582;29;19922;-77
2022/03/12 08:52:39;;;;;;;;;;;;;;;;;;4912225;29;20522;-75
2022/03/12 08:55:05;;;;;;;;;;;;;;;;;;4911699;29;20001;-77
2022/03/12 08:57:32;;;;;;;;;;;;;;;;;;4912150;29;19938;-77
2022/03/12 08:59:58;;;;;;;;;;;;;;;;;;4911775;29;20294;-77
2022/03/12 09:02:23;;;;;;;;;;;;;;;;;;4913093;29;20006;-77
2022/03/12 09:04:49;;;;;;;;;;;;;;;;;;4912150;29;20005;-77
2022/03/12 09:07:15;;;;;;;;;;;;;;;;;;4913940;29;19915;-77
2022/03/12 09:09:42;;;;;;;;;;;;;;;;;;4896271;29;19920;-76
2022/03/12 09:12:08;;;;;;;;;;;;;;;;;;4913103;29;20402;-77
2022/03/12 09:14:35;;;;;;;;;;;;;;;;;;4916024;29;20339;-77
2022/03/12 09:17:04;;;;;;;;;;;;;;;;;;4915796;29;19915;-77
2022/03/12 09:19:32;;;;;;;;;;;;;;;;;;4916769;29;19919;-77
2022/03/12 09:21:58;;;;;;;;;;;;;;;;;;4916713;29;19922;-77
2022/03/12 09:24:24;;;;;;;;;;;;;;;;;;4917027;29;20009;-77
2022/03/12 09:26:49;;;;;;;;;;;;;;;;;;4915591;29;20404;-77
2022/03/12 09:29:15;;;;;;;;;;;;;;;;;;4915368;29;19927;-76
2022/03/12 09:31:40;;;;;;;;;;;;;;;;;;4915354;29;19915;-78
2022/03/12 09:34:06;;;;;;;;;;;;;;;;;;4916512;29;19957;-77
2022/03/12 09:36:31;;;;;;;;;;;;;;;;;;4915512;29;19957;-77
2022/03/12 09:38:58;;;;;;;;;;;;;;;;;;4916977;29;20375;-75
2022/03/12 09:41:23;;;;;;;;;;;;;;;;;;4899753;29;19919;-75
2022/03/12 09:43:49;;;;;;;;;;;;;;;;;;4917443;29;19955;-75
2022/03/12 09:46:14;;;;;;;;;;;;;;;;;;4927963;29;20323;-77
2022/03/12 09:48:40;;;;;;;;;;;;;;;;;;4938395;29;20016;-77
2022/03/12 09:51:05;;;;;;;;;;;;;;;;;;4934429;29;20327;-76
2022/03/12 09:53:31;;;;;;;;;;;;;;;;;;4935190;29;19926;-78
2022/03/12 09:55:56;;;;;;;;;;;;;;;;;;4934097;29;19926;-77
2022/03/12 09:58:22;;;;;;;;;;;;;;;;;;4934033;29;19969;-77
2022/03/12 10:00:47;;;;;;;;;;;;;;;;;;4934286;29;20287;-77
2022/03/12 10:03:13;;;;;;;;;;;;;;;;;;4934293;29;19999;-78
2022/03/12 10:05:39;;;;;;;;;;;;;;;;;;4935335;29;19937;-77
2022/03/12 10:08:04;;;;;;;;;;;;;;;;;;4934278;29;19923;-77
2022/03/12 10:10:31;;;;;;;;;;;;;;;;;;4936120;29;20280;-76
2022/03/12 10:12:57;;;;;;;;;;;;;;;;;;4935058;29;19918;-78
2022/03/12 10:15:22;;;;;;;;;;;;;;;;;;4933737;29;19978;-76
2022/03/12 10:17:48;;;;;;;;;;;;;;;;;;4933521;29;20243;-77
2022/03/12 10:20:14;;;;;;;;;;;;;;;;;;4935132;29;20376;-79
2022/03/12 10:22:40;;;;;;;;;;;;;;;;;;4917577;29;19922;-79
2022/03/12 10:25:06;;;;;;;;;;;;;;;;;;4931907;29;20014;-80
2022/03/12 10:27:32;;;;;;;;;;;;;;;;;;4932900;29;20014;-78
2022/03/12 10:29:57;;;;;;;;;;;;;;;;;;4934123;29;19930;-81
2022/03/12 10:32:24;;;;;;;;;;;;;;;;;;4933274;29;19915;-79
2022/03/12 10:34:52;;;;;;;;;;;;;;;;;;4934413;29;19922;-79
2022/03/12 10:37:22;;;;;;;;;;;;;;;;;;4933200;29;19997;-80
2022/03/12 10:39:48;;;;;;;;;;;;;;;;;;4936599;29;19915;-79
2022/03/12 10:42:14;;;;;;;;;;;;;;;;;;4934541;29;19915;-80
2022/03/12 10:44:40;;;;;;;;;;;;;;;;;;4933217;29;19922;-81
2022/03/12 10:47:22;;;;;;;;;;;;;;;;;;4916346;29;20002;-80
2022/03/12 10:50:14;;;;;;;;;;;;;;;;;;4920521;29;20091;-76
2022/03/12 10:52:41;;;;;;;;;;;;;;;;;;4915121;29;19931;-78
2022/03/12 10:55:11;;;;;;;;;;;;;;;;;;4915821;29;19938;-78
2022/03/12 10:57:37;;;;;;;;;;;;;;;;;;4915026;29;19915;-80
2022/03/12 11:00:08;;;;;;;;;;;;;;;;;;4915624;29;20009;-77
2022/03/12 11:02:33;;;;;;;;;;;;;;;;;;4915170;29;19923;-80
2022/03/12 11:05:02;;;;;;;;;;;;;;;;;;4915324;29;19925;-80
2022/03/12 11:07:28;;;;;;;;;;;;;;;;;;4914023;29;19919;-79
2022/03/12 11:09:55;;;;;;;;;;;;;;;;;;4915460;29;20003;-80
2022/03/12 11:12:29;;;;;;;;;;;;;;;;;;4913719;29;19922;-79
2022/03/12 11:15:08;;;;;;;;;;;;;;;;;;4915234;29;19915;-79
2022/03/12 11:17:46;;;;;;;;;;;;;;;;;;4914211;29;19919;-78
2022/03/12 11:20:19;;;;;;;;;;;;;;;;;;4915619;29;19915;-79
2022/03/12 11:22:49;;;;;;;;;;;;;;;;;;4915226;29;20264;-79
2022/03/12 11:25:19;;;;;;;;;;;;;;;;;;4915659;29;20292;-78
2022/03/12 11:27:49;;;;;;;;;;;;;;;;;;4917046;29;19927;-78
2022/03/12 11:30:15;;;;;;;;;;;;;;;;;;4916833;29;19934;-79
2022/03/12 11:32:45;;;;;;;;;;;;;;;;;;4916275;29;19915;-78
2022/03/12 11:35:13;;;;;;;;;;;;;;;;;;4918373;29;19967;-78
2022/03/12 11:37:41;;;;;;;;;;;;;;;;;;4917861;29;19971;-79
2022/03/12 11:40:11;;;;;;;;;;;;;;;;;;4921445;29;19926;-80
2022/03/12 11:42:38;;;;;;;;;;;;;;;;;;4919172;29;19926;-77
2022/03/12 11:45:05;;;;;;;;;;;;;;;;;;4917234;29;20296;-77
2022/03/12 11:47:34;;;;;;;;;;;;;;;;;;4933076;29;19915;-80
2022/03/12 11:50:04;;;;;;;;;;;;;;;;;;4932060;29;20368;-80
2022/03/12 11:52:30;;;;;;;;;;;;;;;;;;4933388;29;20475;-80
2022/03/12 11:54:56;;;;;;;;;;;;;;;;;;4931524;29;19918;-81
2022/03/12 11:57:30;;;;;;;;;;;;;;;;;;4932246;29;19936;-79
2022/03/12 11:59:56;;;;;;;;;;;;;;;;;;4933639;29;20318;-81
2022/03/12 12:02:31;;;;;;;;;;;;;;;;;;4934676;29;19919;-79
2022/03/12 12:04:58;;;;;;;;;;;;;;;;;;4949617;29;19915;-78
2022/03/12 12:07:24;;;;;;;;;;;;;;;;;;4950605;29;19915;-79
2022/03/12 12:09:50;;;;;;;;;;;;;;;;;;4948551;29;20005;-80
2022/03/12 12:12:16;;;;;;;;;;;;;;;;;;4936586;29;19986;-78
2022/03/12 12:14:43;;;;;;;;;;;;;;;;;;4936818;29;19915;-79
2022/03/12 12:17:09;;;;;;;;;;;;;;;;;;4942345;29;20078;-79
2022/03/12 12:19:35;;;;;;;;;;;;;;;;;;4940460;29;19918;-79
2022/03/12 12:22:01;;;;;;;;;;;;;;;;;;4933483;29;19915;-79
2022/03/12 12:24:26;;;;;;;;;;;;;;;;;;4932704;29;19914;-81
2022/03/12 12:26:59;;;;;;;;;;;;;;;;;;4931224;29;19922;-79
2022/03/12 12:29:45;;;;;;;;;;;;;;;;;;4931900;29;20125;-80
2022/03/12 12:32:11;;;;;;;;;;;;;;;;;;4946699;29;19958;-81
2022/03/12 12:34:56;;;;;;;;;;;;;;;;;;4932239;29;19965;-80
2022/03/12 12:37:21;;;;;;;;;;;;;;;;;;4931534;29;20316;-78
2022/03/12 12:39:46;;;;;;;;;;;;;;;;;;4931200;29;19919;-79
2022/03/12 12:42:12;;;;;;;;;;;;;;;;;;4933370;29;19962;-80
2022/03/12 12:44:44;;;;;;;;;;;;;;;;;;4932039;29;19919;-79
2022/03/12 12:47:17;;;;;;;;;;;;;;;;;;4914680;29;19919;-79
2022/03/12 12:49:49;;;;;;;;;;;;;;;;;;4917883;29;19926;-79
2022/03/12 12:52:14;;;;;;;;;;;;;;;;;;4915819;29;19931;-80
2022/03/12 12:54:46;;;;;;;;;;;;;;;;;;4918442;29;19922;-79
2022/03/12 12:57:11;;;;;;;;;;;;;;;;;;4917541;29;19915;-79
2022/03/12 12:59:41;;;;;;;;;;;;;;;;;;4917250;29;19923;-81
2022/03/12 13:02:07;;;;;;;;;;;;;;;;;;4916317;29;19919;-80
2022/03/12 13:04:48;;;;;;;;;;;;;;;;;;4916909;29;19916;-79
2022/03/12 13:07:19;;;;;;;;;;;;;;;;;;4917253;29;19939;-80
2022/03/12 13:09:47;;;;;;;;;;;;;;;;;;4916161;29;19926;-78
2022/03/12 13:12:15;;;;;;;;;;;;;;;;;;4925238;29;20489;-79
2022/03/12 13:14:42;;;;;;;;;;;;;;;;;;4930189;29;19915;-77
2022/03/12 13:17:07;;;;;;;;;;;;;;;;;;4930740;29;19943;-80
2022/03/12 13:19:33;;;;;;;;;;;;;;;;;;4931897;29;19919;-79
2022/03/12 13:22:01;;;;;;;;;;;;;;;;;;4926489;29;20096;-80
2022/03/12 13:24:32;;;;;;;;;;;;;;;;;;4917296;29;19993;-79
2022/03/12 13:27:01;;;;;;;;;;;;;;;;;;4915607;29;20260;-79
2022/03/12 13:29:29;;;;;;;;;;;;;;;;;;4916794;29;19927;-80
2022/03/12 13:31:55;;;;;;;;;;;;;;;;;;4917419;29;19975;-79
2022/03/12 13:34:22;;;;;;;;;;;;;;;;;;4917148;29;20414;-80
2022/03/12 13:36:54;;;;;;;;;;;;;;;;;;4916974;29;19920;-79
2022/03/12 13:39:20;;;;;;;;;;;;;;;;;;4916183;29;19919;-79
2022/03/12 13:41:47;;;;;;;;;;;;;;;;;;4916337;29;19915;-79
2022/03/12 13:44:14;;;;;;;;;;;;;;;;;;4915949;29;19926;-79
2022/03/12 13:46:41;;;;;;;;;;;;;;;;;;4918727;29;19925;-83
2022/03/12 13:49:11;;;;;;;;;;;;;;;;;;4916784;29;19979;-80
2022/03/12 13:51:39;;;;;;;;;;;;;;;;;;4917363;29;19927;-80
2022/03/12 13:54:07;;;;;;;;;;;;;;;;;;4922555;29;19915;-81
2022/03/12 13:56:33;;;;;;;;;;;;;;;;;;4925675;29;20376;-79
2022/03/12 13:59:03;;;;;;;;;;;;;;;;;;4921255;29;20004;-78
2022/03/12 14:01:32;;;;;;;;;;;;;;;;;;4915019;29;20220;-79
2022/03/12 14:03:59;;;;;;;;;;;;;;;;;;4915842;29;19923;-79
2022/03/12 14:06:34;;;;;;;;;;;;;;;;;;4916201;29;20432;-79
2022/03/12 14:09:00;;;;;;;;;;;;;;;;;;4915854;29;19930;-79
2022/03/12 14:11:34;;;;;;;;;;;;;;;;;;4916049;29;19919;-80
2022/03/12 14:14:06;;;;;;;;;;;;;;;;;;4914756;29;19926;-79
2022/03/12 14:16:35;;;;;;;;;;;;;;;;;;4916768;29;19950;-80
2022/03/12 14:19:00;;;;;;;;;;;;;;;;;;4914759;29;20298;-79
2022/03/12 14:21:37;;;;;;;;;;;;;;;;;;4914962;29;19915;-80
2022/03/12 14:24:11;;;;;;;;;;;;;;;;;;4915702;29;19954;-79
2022/03/12 14:26:48;;;;;;;;;;;;;;;;;;4915651;29;19915;-79
2022/03/12 14:29:13;;;;;;;;;;;;;;;;;;4915407;29;19942;-79
2022/03/12 14:31:38;;;;;;;;;;;;;;;;;;4915929;29;19919;-78
2022/03/12 14:34:05;;;;;;;;;;;;;;;;;;4916202;29;20568;-80
2022/03/12 14:36:34;;;;;;;;;;;;;;;;;;4916457;29;20355;-79
2022/03/12 14:39:04;;;;;;;;;;;;;;;;;;4916419;29;19915;-76
2022/03/12 14:41:29;;;;;;;;;;;;;;;;;;4914305;29;19962;-80
2022/03/12 14:43:55;;;;;;;;;;;;;;;;;;4913811;29;20036;-79
2022/03/12 14:46:22;;;;;;;;;;;;;;;;;;4898696;29;19958;-80
2022/03/12 14:48:48;;;;;;;;;;;;;;;;;;4916931;29;19959;-79
2022/03/12 14:51:19;;;;;;;;;;;;;;;;;;4926156;29;19915;-80
2022/03/12 14:53:45;;;;;;;;;;;;;;;;;;4900826;29;19966;-81
2022/03/12 14:56:13;;;;;;;;;;;;;;;;;;4913085;29;20316;-80
2022/03/12 14:58:38;;;;;;;;;;;;;;;;;;4914011;29;19919;-78
2022/03/12 15:01:04;;;;;;;;;;;;;;;;;;4915223;29;19922;-80
2022/03/12 15:03:30;;;;;;;;;;;;;;;;;;4913603;29;20010;-79
2022/03/12 15:05:55;;;;;;;;;;;;;;;;;;4913532;29;20293;-80
2022/03/12 15:08:27;;;;;;;;;;;;;;;;;;4916486;29;20364;-81
2022/03/12 15:11:03;;;;;;;;;;;;;;;;;;4929520;29;19954;-80
2022/03/12 15:13:32;;;;;;;;;;;;;;;;;;4913893;29;19962;-79
2022/03/12 15:15:57;;;;;;;;;;;;;;;;;;4914531;29;19919;-80
2022/03/12 15:18:29;;;;;;;;;;;;;;;;;;4913312;29;20386;-81
2022/03/12 15:20:56;;;;;;;;;;;;;;;;;;4915203;29;19923;-79
2022/03/12 15:23:22;;;;;;;;;;;;;;;;;;4913803;29;19937;-80
2022/03/12 15:26:01;;;;;;;;;;;;;;;;;;4913159;29;19954;-78
2022/03/12 15:28:29;;;;;;;;;;;;;;;;;;4914593;29;19926;-80
2022/03/12 15:30:59;;;;;;;;;;;;;;;;;;4914725;29;19923;-81
2022/03/12 15:33:32;;;;;;;;;;;;;;;;;;4913216;29;20394;-78
2022/03/12 15:36:07;;;;;;;;;;;;;;;;;;4915063;29;19926;-78
2022/03/12 15:38:32;;;;;;;;;;;;;;;;;;4915979;29;19975;-79
2022/03/12 15:40:58;;;;;;;;;;;;;;;;;;4913478;29;19915;-77
2022/03/12 15:43:23;;;;;;;;;;;;;;;;;;4912619;29;19919;-76
2022/03/12 15:45:50;;;;;;;;;;;;;;;;;;4922012;29;20482;-77
2022/03/12 15:48:15;;;;;;;;;;;;;;;;;;4931233;29;19915;-77
2022/03/12 15:50:40;;;;;;;;;;;;;;;;;;4933540;29;19914;-77
2022/03/12 15:53:10;;;;;;;;;;;;;;;;;;4932017;29;20017;-77
2022/03/12 15:55:36;;;;;;;;;;;;;;;;;;4932057;29;19921;-77
2022/03/12 15:58:02;;;;;;;;;;;;;;;;;;4931344;29;20013;-77
2022/03/12 16:00:28;;;;;;;;;;;;;;;;;;4931439;29;20300;-76
2022/03/12 16:02:54;;;;;;;;;;;;;;;;;;4931205;29;20272;-78
2022/03/12 16:05:19;;;;;;;;;;;;;;;;;;4932732;29;19919;-76
2022/03/12 16:07:45;;;;;;;;;;;;;;;;;;4932664;29;19937;-76
2022/03/12 16:10:17;;;;;;;;;;;;;;;;;;4932558;29;19966;-76
2022/03/12 16:12:44;;;;;;;;;;;;;;;;;;4933293;29;19922;-77
2022/03/12 16:15:10;;;;;;;;;;;;;;;;;;4931571;29;19919;-78
2022/03/12 16:17:38;;;;;;;;;;;;;;;;;;4932808;29;19914;-77
2022/03/12 16:20:13;;;;;;;;;;;;;;;;;;4931312;29;19922;-76
2022/03/12 16:22:39;;;;;;;;;;;;;;;;;;4930279;29;19919;-77
2022/03/12 16:25:09;;;;;;;;;;;;;;;;;;4931399;29;19919;-77
2022/03/12 16:27:35;;;;;;;;;;;;;;;;;;4930943;29;20006;-78
2022/03/12 16:30:02;;;;;;;;;;;;;;;;;;4931391;29;20367;-77
2022/03/12 16:32:28;;;;;;;;;;;;;;;;;;4933136;29;19915;-78
2022/03/12 16:34:53;;;;;;;;;;;;;;;;;;4931104;29;20422;-78
2022/03/12 16:37:19;;;;;;;;;;;;;;;;;;4931368;29;19995;-76
2022/03/12 16:39:45;;;;;;;;;;;;;;;;;;4932487;29;20411;-77
2022/03/12 16:42:11;;;;;;;;;;;;;;;;;;4931454;29;19934;-77
2022/03/12 16:44:37;;;;;;;;;;;;;;;;;;4931491;29;19922;-77
2022/03/12 16:47:03;;;;;;;;;;;;;;;;;;4915661;29;20342;-76
2022/03/12 16:49:31;;;;;;;;;;;;;;;;;;4911839;29;19919;-77